createdAt,value
2022-09-27T00:00:39.219Z,16.91
2022-09-27T00:03:07.997Z,16.87
2022-09-27T00:05:36.830Z,16.90
2022-09-27T00:08:04.394Z,16.92
2022-09-27T00:10:32.859Z,16.81
2022-09-27T00:13:00.324Z,16.81
2022-09-27T00:15:27.939Z,16.84
2022-09-27T00:17:55.384Z,16.82
2022-09-27T00:20:23.015Z,16.90
2022-09-27T00:22:50.889Z,16.79
2022-09-27T00:25:18.447Z,16.79
2022-09-27T00:27:46.382Z,16.81
2022-09-27T00:30:14.165Z,16.83
2022-09-27T00:32:41.630Z,16.82
2022-09-27T00:35:09.620Z,16.81
2022-09-27T00:37:37.666Z,16.72
2022-09-27T00:40:06.223Z,16.80
2022-09-27T00:42:34.215Z,16.79
2022-09-27T00:45:03.293Z,16.73
2022-09-27T00:47:33.720Z,16.77
2022-09-27T00:50:03.594Z,16.66
2022-09-27T00:52:33.872Z,16.72
2022-09-27T00:55:03.705Z,16.83
2022-09-27T00:57:32.396Z,16.71
2022-09-27T01:00:01.719Z,16.72
2022-09-27T01:02:29.749Z,16.61
2022-09-27T01:04:58.072Z,16.62
2022-09-27T01:07:25.828Z,16.70
2022-09-27T01:09:53.350Z,16.68
2022-09-27T01:12:39.790Z,16.73
2022-09-27T01:15:13.433Z,16.53
2022-09-27T01:17:44.105Z,16.66
2022-09-27T01:20:24.589Z,16.67
2022-09-27T01:23:05.124Z,16.60
2022-09-27T01:25:35.792Z,16.63
2022-09-27T01:28:09.438Z,16.63
2022-09-27T01:30:37.123Z,16.64
2022-09-27T01:33:17.257Z,16.73
2022-09-27T01:35:45.053Z,16.67
2022-09-27T01:38:14.343Z,16.72
2022-09-27T01:40:42.933Z,16.68
2022-09-27T01:44:09.565Z,16.63
2022-09-27T01:46:46.202Z,16.74
2022-09-27T01:49:33.095Z,16.78
2022-09-27T01:52:01.196Z,16.73
2022-09-27T01:54:31.546Z,16.64
2022-09-27T01:57:02.019Z,16.79
2022-09-27T01:59:45.448Z,16.77
2022-09-27T02:02:49.691Z,16.82
2022-09-27T02:05:43.239Z,16.87
2022-09-27T02:08:41.951Z,16.77
2022-09-27T02:11:19.853Z,16.84
2022-09-27T02:13:56.519Z,16.84
2022-09-27T02:16:47.360Z,16.79
2022-09-27T02:19:35.167Z,16.87
2022-09-27T02:22:19.926Z,16.91
2022-09-27T02:24:51.396Z,16.86
2022-09-27T02:27:22.005Z,16.90
2022-09-27T02:29:59.376Z,16.86
2022-09-27T02:32:27.540Z,16.79
2022-09-27T02:34:56.047Z,16.76
2022-09-27T02:37:23.708Z,16.88
2022-09-27T02:39:52.276Z,16.90
2022-09-27T02:42:19.915Z,16.93
2022-09-27T02:44:47.387Z,16.87
2022-09-27T02:47:25.563Z,16.85
2022-09-27T02:50:05.833Z,16.85
2022-09-27T02:53:08.243Z,16.84
2022-09-27T02:55:47.994Z,16.87
2022-09-27T02:59:09.335Z,16.94
2022-09-27T03:02:09.750Z,16.85
2022-09-27T03:04:59.614Z,16.84
2022-09-27T03:07:27.234Z,16.91
2022-09-27T03:09:56.001Z,16.69
2022-09-27T03:12:26.476Z,16.81
2022-09-27T03:14:57.952Z,16.78
2022-09-27T03:17:45.662Z,16.78
2022-09-27T03:20:31.800Z,16.79
2022-09-27T03:23:10.856Z,16.80
2022-09-27T03:25:38.636Z,16.59
2022-09-27T03:28:11.634Z,16.71
2022-09-27T03:30:40.250Z,16.73
2022-09-27T03:33:09.715Z,16.76
2022-09-27T03:35:42.058Z,16.72
2022-09-27T03:38:10.005Z,16.68
2022-09-27T03:40:38.917Z,16.72
2022-09-27T03:43:07.734Z,16.68
2022-09-27T03:45:35.352Z,16.70
2022-09-27T03:48:07.052Z,16.73
2022-09-27T03:50:35.002Z,16.62
2022-09-27T03:53:02.680Z,16.68
2022-09-27T03:55:31.500Z,16.68
2022-09-27T03:57:59.141Z,16.72
2022-09-27T04:00:26.977Z,16.69
2022-09-27T04:02:55.036Z,16.73
2022-09-27T04:05:26.959Z,16.70
2022-09-27T04:07:58.046Z,16.80
2022-09-27T04:10:26.540Z,16.73
2022-09-27T04:12:54.121Z,16.71
2022-09-27T04:15:24.659Z,16.60
2022-09-27T04:17:52.834Z,16.58
2022-09-27T04:20:36.214Z,16.66
2022-09-27T04:23:13.455Z,16.68
2022-09-27T04:25:47.641Z,16.66
2022-09-27T04:28:23.779Z,16.70
2022-09-27T04:30:51.811Z,16.71
2022-09-27T04:33:37.945Z,16.76
2022-09-27T04:36:29.511Z,16.72
2022-09-27T04:39:07.119Z,16.85
2022-09-27T04:41:37.478Z,16.72
2022-09-27T04:44:06.704Z,16.74
2022-09-27T04:46:35.102Z,16.86
2022-09-27T04:49:04.771Z,16.82
2022-09-27T04:51:35.301Z,16.80
2022-09-27T04:54:02.759Z,16.76
2022-09-27T04:56:33.982Z,16.80
2022-09-27T15:38:49.388Z,16.81
2022-09-27T15:41:17.902Z,16.65
2022-09-27T15:43:46.252Z,16.69
2022-09-27T15:46:23.129Z,16.70
2022-09-27T15:49:10.954Z,16.69
2022-09-27T15:51:39.363Z,16.61
2022-09-27T15:54:06.681Z,16.61
2022-09-27T15:56:35.236Z,16.59
2022-09-27T15:59:02.955Z,16.60
2022-09-27T16:01:30.579Z,16.61
2022-09-27T16:03:58.955Z,16.61
2022-09-27T16:06:26.889Z,16.61
2022-09-27T16:08:56.853Z,16.62
2022-09-27T16:11:24.288Z,16.57
2022-09-27T16:13:53.111Z,16.55
2022-09-27T16:16:20.802Z,16.62
2022-09-27T16:18:48.618Z,16.65
2022-09-27T16:21:16.054Z,16.68
2022-09-27T16:23:43.467Z,16.59
2022-09-27T16:26:10.934Z,16.59
2022-09-27T16:28:38.322Z,16.63
2022-09-27T16:31:06.342Z,16.61
2022-09-27T16:33:33.873Z,16.59
2022-09-27T16:36:04.572Z,16.54
2022-09-27T16:38:32.045Z,16.58
2022-09-27T16:41:00.901Z,16.56
2022-09-27T16:43:29.505Z,16.52
2022-09-27T16:46:12.362Z,16.47
2022-09-27T16:48:39.875Z,16.40
2022-09-27T16:51:27.080Z,16.38
2022-09-27T16:53:54.526Z,16.28
2022-09-27T16:56:22.067Z,16.19
2022-09-27T16:58:49.818Z,16.20
2022-09-27T17:01:17.790Z,16.23
2022-09-27T17:03:56.777Z,16.11
2022-09-27T17:06:25.026Z,16.11
2022-09-27T17:08:55.674Z,16.11
2022-09-27T17:11:24.811Z,16.10
2022-09-27T17:13:56.197Z,16.03
2022-09-27T17:16:23.795Z,16.06
2022-09-27T17:18:51.764Z,15.98
2022-09-27T17:21:19.201Z,15.96
2022-09-27T17:23:46.754Z,15.97
2022-09-27T17:26:14.192Z,15.91
2022-09-27T17:28:42.847Z,15.98
2022-09-27T17:31:12.172Z,15.93
2022-09-27T17:33:44.443Z,15.95
2022-09-27T17:36:17.516Z,15.97
2022-09-27T17:38:46.513Z,15.93
2022-09-27T17:41:14.218Z,15.89
2022-09-27T17:43:50.254Z,15.83
2022-09-27T17:46:18.749Z,15.88
2022-09-27T17:49:04.722Z,15.87
2022-09-27T17:51:32.638Z,15.89
2022-09-27T17:54:00.057Z,15.80
2022-09-27T17:56:27.722Z,15.74
2022-09-27T17:58:55.464Z,15.72
2022-09-27T18:01:23.266Z,15.77
2022-09-27T18:03:57.051Z,15.75
2022-09-27T18:06:26.095Z,15.68
2022-09-27T18:08:55.435Z,15.66
2022-09-27T18:11:33.717Z,15.71
2022-09-27T18:14:01.871Z,15.68
2022-09-27T18:16:32.404Z,15.62
2022-09-27T18:19:00.562Z,15.70
2022-09-27T18:21:28.139Z,15.58
2022-09-27T18:23:56.801Z,15.73
2022-09-27T18:26:24.816Z,15.68
2022-09-27T18:28:52.947Z,15.67
2022-09-27T18:34:06.572Z,15.68
2022-09-27T18:36:34.600Z,15.64
2022-09-27T18:39:02.603Z,15.66
2022-09-27T18:41:32.592Z,15.64
2022-09-27T18:44:01.124Z,15.62
2022-09-27T18:46:37.065Z,15.67
2022-09-27T18:49:05.846Z,15.68
2022-09-27T18:51:33.360Z,15.72
2022-09-27T18:54:01.820Z,15.73
2022-09-27T18:56:29.468Z,15.74
2022-09-27T18:58:56.996Z,15.76
2022-09-27T19:01:25.466Z,15.80
2022-09-27T19:03:53.102Z,15.74
2022-09-27T19:06:21.683Z,15.80
2022-09-27T19:08:55.976Z,15.87
2022-09-27T19:11:23.335Z,15.84
2022-09-27T19:13:53.473Z,15.87
2022-09-27T19:16:21.219Z,15.85
2022-09-27T19:18:48.759Z,15.92
2022-09-27T19:21:17.800Z,15.91
2022-09-27T19:23:45.246Z,15.93
2022-09-27T19:26:14.791Z,15.93
2022-09-27T19:28:42.828Z,16.00
2022-09-27T19:31:12.105Z,15.96
2022-09-27T19:33:39.643Z,15.94
2022-09-27T19:36:07.891Z,16.00
2022-09-27T19:38:36.143Z,16.02
2022-09-27T19:41:07.558Z,16.02
2022-09-27T19:43:34.981Z,16.04
2022-09-27T19:46:03.113Z,16.10
2022-09-27T19:48:30.597Z,16.11
2022-09-27T19:50:58.782Z,16.11
2022-09-27T19:53:31.150Z,16.13
2022-09-27T19:56:06.357Z,16.10
2022-09-27T19:58:35.006Z,16.18
2022-09-27T20:01:08.816Z,16.16
2022-09-27T20:03:36.796Z,16.26
2022-09-27T20:06:04.793Z,16.29
2022-09-27T20:08:32.182Z,16.29
2022-09-27T20:11:05.133Z,16.33
2022-09-27T20:13:38.051Z,16.38
2022-09-27T20:16:07.070Z,16.38
2022-09-27T20:18:34.687Z,16.43
2022-09-27T20:21:02.394Z,16.41
2022-09-27T20:23:30.193Z,16.48
2022-09-27T20:26:04.843Z,16.48
2022-09-27T20:28:32.162Z,16.43
2022-09-27T20:31:00.502Z,16.50
2022-09-27T20:33:46.917Z,16.48
2022-09-27T20:36:15.315Z,16.48
2022-09-27T20:38:43.477Z,16.50
2022-09-27T20:41:11.283Z,16.51
2022-09-27T20:43:39.747Z,16.44
2022-09-27T20:46:07.658Z,16.47
2022-09-27T20:48:35.155Z,16.52
2022-09-27T20:51:04.785Z,16.47
2022-09-27T20:53:34.330Z,16.50
2022-09-27T20:56:04.828Z,16.58
2022-09-27T20:58:32.419Z,16.59
2022-09-27T21:01:04.699Z,16.63
2022-09-27T21:03:32.105Z,16.61
2022-09-27T21:05:59.671Z,16.62
2022-09-27T21:08:29.238Z,16.68
2022-09-27T21:11:00.456Z,16.68
2022-09-27T21:13:27.812Z,16.66
2022-09-27T21:15:59.258Z,16.79
2022-09-27T21:18:26.735Z,16.81
2022-09-27T21:21:00.377Z,16.77
2022-09-27T21:23:29.654Z,16.82
2022-09-27T21:26:02.761Z,16.83
2022-09-27T21:28:46.042Z,16.76
2022-09-27T21:31:17.613Z,16.80
2022-09-27T21:33:54.715Z,16.77
2022-09-27T21:36:22.772Z,16.84
2022-09-27T21:38:50.514Z,16.87
2022-09-27T21:41:18.529Z,16.84
2022-09-27T21:43:46.454Z,16.88
2022-09-27T21:46:14.604Z,16.90
2022-09-27T21:48:44.166Z,16.83
2022-09-27T21:51:18.510Z,16.81
2022-09-27T21:53:54.018Z,16.83
2022-09-27T21:56:22.621Z,16.83
2022-09-27T21:58:49.963Z,16.81
2022-09-27T22:01:21.914Z,16.75
2022-09-27T22:03:49.527Z,16.80
2022-09-27T22:06:20.939Z,16.81
2022-09-27T22:08:48.669Z,16.78
2022-09-27T22:11:17.235Z,16.71
2022-09-27T22:13:44.771Z,16.73
2022-09-27T22:16:13.390Z,16.71
2022-09-27T22:18:43.268Z,16.68
2022-09-27T22:21:11.625Z,16.66
2022-09-27T22:23:39.015Z,16.62
2022-09-27T22:26:14.425Z,16.65
2022-09-27T22:28:42.368Z,16.62
2022-09-27T22:31:09.872Z,16.66
2022-09-27T22:33:39.165Z,16.64
2022-09-27T22:36:06.945Z,16.59
2022-09-27T22:38:34.934Z,16.59
2022-09-27T22:41:02.351Z,16.60
2022-09-27T22:43:29.870Z,16.64
2022-09-27T22:45:57.542Z,16.64
2022-09-27T22:48:24.987Z,16.71
2022-09-27T22:50:52.698Z,16.68
2022-09-27T22:53:20.922Z,16.64
2022-09-27T22:56:07.464Z,16.74
2022-09-27T22:58:35.983Z,16.68
2022-09-27T23:01:16.992Z,16.72
2022-09-27T23:03:45.988Z,16.71
2022-09-27T23:06:14.233Z,16.64
2022-09-27T23:08:41.840Z,16.67
2022-09-27T23:11:10.087Z,16.72
2022-09-27T23:13:38.999Z,16.78
2022-09-27T23:16:07.786Z,16.71
2022-09-27T23:18:35.314Z,16.76
2022-09-27T23:21:04.205Z,16.80
2022-09-27T23:23:32.121Z,16.79
2022-09-27T23:26:04.679Z,16.77
2022-09-27T23:28:33.379Z,16.78
2022-09-27T23:31:08.981Z,16.73
2022-09-27T23:33:40.594Z,16.79
2022-09-27T23:36:09.077Z,16.73
2022-09-27T23:38:37.874Z,16.77
2022-09-27T23:41:05.322Z,16.69
2022-09-27T23:43:33.696Z,16.73
2022-09-27T23:46:01.625Z,16.77
2022-09-27T23:48:29.062Z,16.73
2022-09-27T23:50:57.349Z,16.73
2022-09-27T23:53:24.753Z,16.88
2022-09-27T23:56:07.779Z,16.95
2022-09-27T23:58:39.300Z,16.99
